TimeEST,TemperatureF,Dew PointF,Humidity,Sea Level PressureIn,VisibilityMPH,Wind Direction,Wind SpeedMPH,Gust SpeedMPH,PrecipitationIn,Events,Conditions,WindDirDegrees,DateUTC
12:53 AM,28.0,6.1,39,30.20,10.0,WNW,4.6,-,N/A,,Partly Cloudy,290,2013-02-17 05:53:00
1:53 AM,28.0,7.0,41,30.21,10.0,West,3.5,-,N/A,,Partly Cloudy,280,2013-02-17 06:53:00
2:53 AM,26.1,9.0,49,30.21,10.0,Calm,Calm,-,N/A,,Scattered Clouds,0,2013-02-17 07:53:00
3:53 AM,25.0,10.9,55,30.22,10.0,Calm,Calm,-,N/A,,Scattered Clouds,0,2013-02-17 08:53:00
4:53 AM,21.9,10.9,63,30.24,10.0,Calm,Calm,-,N/A,,Clear,0,2013-02-17 09:53:00
5:53 AM,21.9,10.0,60,30.25,10.0,Calm,Calm,-,N/A,,Clear,0,2013-02-17 10:53:00
6:53 AM,21.9,10.9,63,30.27,10.0,Calm,Calm,-,N/A,,Clear,0,2013-02-17 11:53:00
7:53 AM,23.0,10.9,60,30.29,10.0,Variable,3.5,-,N/A,,Clear,0,2013-02-17 12:53:00
8:53 AM,28.0,12.0,51,30.31,10.0,SW,6.9,-,N/A,,Clear,220,2013-02-17 13:53:00
9:53 AM,32.0,12.0,44,30.31,10.0,SSW,5.8,-,N/A,,Clear,210,2013-02-17 14:53:00
10:53 AM,33.1,10.9,40,30.32,10.0,SSW,4.6,-,N/A,,Clear,200,2013-02-17 15:53:00
11:53 AM,36.0,10.0,34,30.31,10.0,Calm,Calm,-,N/A,,Clear,0,2013-02-17 16:53:00
12:53 PM,39.9,8.1,27,30.29,10.0,Variable,5.8,-,N/A,,Clear,0,2013-02-17 17:53:00
1:53 PM,41.0,8.1,26,30.26,10.0,Variable,6.9,-,N/A,,Clear,0,2013-02-17 18:53:00
2:53 PM,42.1,7.0,24,30.25,10.0,WSW,5.8,-,N/A,,Clear,250,2013-02-17 19:53:00
3:53 PM,43.0,5.0,21,30.25,10.0,Variable,5.8,-,N/A,,Clear,0,2013-02-17 20:53:00
4:53 PM,43.0,7.0,23,30.25,10.0,Variable,6.9,-,N/A,,Clear,0,2013-02-17 21:53:00
5:53 PM,41.0,7.0,25,30.26,10.0,Calm,Calm,-,N/A,,Clear,0,2013-02-17 22:53:00
6:53 PM,39.0,7.0,27,30.28,10.0,Calm,Calm,-,N/A,,Clear,0,2013-02-17 23:53:00
7:53 PM,34.0,12.0,40,30.29,10.0,Calm,Calm,-,N/A,,Clear,0,2013-02-18 00:53:00
8:53 PM,30.9,14.0,50,30.30,10.0,Calm,Calm,-,N/A,,Clear,0,2013-02-18 01:53:00
9:53 PM,30.0,15.1,54,30.31,10.0,Calm,Calm,-,N/A,,Clear,0,2013-02-18 02:53:00
10:53 PM,28.0,16.0,61,30.31,10.0,Calm,Calm,-,N/A,,Clear,0,2013-02-18 03:53:00
11:53 PM,27.0,17.1,66,30.31,10.0,Calm,Calm,-,N/A,,Clear,0,2013-02-18 04:53:00